Time;durP1;ratioP1;P1;durP2;ratioP2;P2;SDS_P1;SDS_P2;PMS_P1;PMS_P2;Temp;Humidity;BMP_temperature;BMP_pressure;BME280_temperature;BME280_humidity;BME280_pressure;Samples;Min_cycle;Max_cycle;Signal;HPM_P1;HPM_P2
2022/03/24 00:00:19;;;;;;;;;;;2.50;92.30;;;;;;4194022;28;19928;-48
2022/03/24 00:02:21;;;;;;;;;;;2.40;91.90;;;;;;4193886;28;19974;-46
2022/03/24 00:04:23;;;;;;;;;;;2.50;92.30;;;;;;4194314;28;19933;-47
2022/03/24 00:06:24;;;;;;;;;;;2.50;92.00;;;;;;4193874;28;20328;-46
2022/03/24 00:08:26;;;;;;;;;;;2.50;91.90;;;;;;4194017;28;20398;-46
2022/03/24 00:10:30;;;;;;;;;;;2.60;93.30;;;;;;4193987;28;19986;-47
2022/03/24 00:12:32;;;;;;;;;;;2.60;92.60;;;;;;4185942;28;19940;-46
2022/03/24 00:14:33;;;;;;;;;;;2.50;92.10;;;;;;4195109;28;19970;-46
2022/03/24 00:16:35;;;;;;;;;;;2.40;92.80;;;;;;4193036;28;19932;-46
2022/03/24 00:18:37;;;;;;;;;;;2.20;93.40;;;;;;4193666;28;19928;-46
2022/03/24 00:20:40;;;;;;;;;;;2.20;94.60;;;;;;4192792;28;19936;-47
2022/03/24 00:22:42;;;;;;;;;;;2.20;95.10;;;;;;4193500;28;19928;-46
2022/03/24 00:24:44;;;;;;;;;;;2.30;95.00;;;;;;4193986;28;19970;-47
2022/03/24 00:26:46;;;;;;;;;;;2.20;94.90;;;;;;4193714;28;20319;-47
2022/03/24 00:28:48;;;;;;;;;;;2.20;94.90;;;;;;4193872;28;19955;-47
2022/03/24 00:30:50;;;;;;;;;;;2.30;95.70;;;;;;4193684;28;19985;-47
2022/03/24 00:32:52;;;;;;;;;;;2.20;96.00;;;;;;4193472;28;19929;-46
2022/03/24 00:34:54;;;;;;;;;;;2.00;95.30;;;;;;4193423;28;19977;-47
2022/03/24 00:36:56;;;;;;;;;;;2.10;94.60;;;;;;4193424;28;19924;-48
2022/03/24 00:38:58;;;;;;;;;;;2.10;94.60;;;;;;4193530;28;19928;-49
2022/03/24 00:41:02;;;;;;;;;;;2.00;94.70;;;;;;4193250;28;19937;-47
2022/03/24 00:43:05;;;;;;;;;;;1.90;95.30;;;;;;4193457;28;19990;-46
2022/03/24 00:45:09;;;;;;;;;;;1.80;95.90;;;;;;4193356;28;19928;-48
2022/03/24 00:47:13;;;;;;;;;;;1.80;96.30;;;;;;4193190;28;19924;-48
2022/03/24 00:49:15;;;;;;;;;;;1.70;97.10;;;;;;4193254;28;19951;-46
2022/03/24 00:51:18;;;;;;;;;;;1.60;97.50;;;;;;4191650;28;20329;-48
2022/03/24 00:53:20;;;;;;;;;;;1.60;98.50;;;;;;4193271;28;20368;-46
2022/03/24 00:55:22;;;;;;;;;;;1.40;99.10;;;;;;4192897;28;19929;-45
2022/03/24 00:57:24;;;;;;;;;;;1.50;99.00;;;;;;4193167;28;19978;-47
2022/03/24 00:59:25;;;;;;;;;;;1.50;98.80;;;;;;4192959;28;19928;-47
2022/03/24 01:01:27;;;;;;;;;;;1.70;99.60;;;;;;4193198;28;19932;-46
2022/03/24 01:03:29;;;;;;;;;;;1.90;99.20;;;;;;4193146;28;20509;-46
2022/03/24 01:05:32;;;;;;;;;;;1.90;98.00;;;;;;4193125;28;20380;-47
2022/03/24 01:07:34;;;;;;;;;;;1.80;97.90;;;;;;4192972;28;19955;-48
2022/03/24 01:09:36;;;;;;;;;;;1.70;98.70;;;;;;4193946;28;20442;-48
2022/03/24 01:11:38;;;;;;;;;;;1.60;99.90;;;;;;4192876;28;19978;-47
2022/03/24 01:13:41;;;;;;;;;;;1.50;99.90;;;;;;4193226;28;19942;-48
2022/03/24 01:15:45;;;;;;;;;;;1.40;99.90;;;;;;4192616;28;19928;-48
2022/03/24 01:17:48;;;;;;;;;;;1.30;99.90;;;;;;4193983;28;19928;-46
2022/03/24 01:19:51;;;;;;;;;;;1.20;99.90;;;;;;4192622;28;19986;-47
2022/03/24 01:21:53;;;;;;;;;;;1.10;99.90;;;;;;4192786;28;20445;-45
2022/03/24 01:23:55;;;;;;;;;;;1.30;99.90;;;;;;4193053;28;19935;-46
2022/03/24 01:25:59;;;;;;;;;;;1.30;99.90;;;;;;4192332;28;20456;-50
2022/03/24 01:28:03;;;;;;;;;;;1.40;99.90;;;;;;4192660;28;19951;-46
2022/03/24 01:30:10;;;;;;;;;;;1.40;99.90;;;;;;4192455;28;19935;-46
2022/03/24 01:32:15;;;;;;;;;;;1.40;99.90;;;;;;4192768;28;19928;-46
2022/03/24 01:34:18;;;;;;;;;;;1.30;99.90;;;;;;4192760;28;20231;-46
2022/03/24 01:36:20;;;;;;;;;;;1.20;99.90;;;;;;4192005;28;19925;-48
2022/03/24 01:38:23;;;;;;;;;;;1.20;99.90;;;;;;4192595;28;20433;-47
2022/03/24 01:40:25;;;;;;;;;;;1.10;99.90;;;;;;4192407;28;20278;-46
2022/03/24 01:42:27;;;;;;;;;;;1.10;99.90;;;;;;4192539;28;19971;-47
2022/03/24 01:44:29;;;;;;;;;;;1.00;99.90;;;;;;4192510;28;19929;-46
2022/03/24 01:46:32;;;;;;;;;;;0.90;99.90;;;;;;4192195;28;19971;-48
2022/03/24 01:48:34;;;;;;;;;;;0.80;99.90;;;;;;4192355;28;19925;-47
2022/03/24 01:50:36;;;;;;;;;;;0.80;99.90;;;;;;4192386;28;19928;-47
2022/03/24 01:52:39;;;;;;;;;;;0.80;99.90;;;;;;4190997;28;19928;-45
2022/03/24 01:54:52;;;;;;;;;;;1.00;99.90;;;;;;4183807;28;20350;-48
2022/03/24 01:56:54;;;;;;;;;;;1.00;99.90;;;;;;4191921;28;19924;-47
2022/03/24 01:58:56;;;;;;;;;;;1.00;99.90;;;;;;4191383;28;19928;-47
2022/03/24 02:01:17;;;;;;;;;;;0.90;99.90;;;;;;4192237;28;19928;-48
2022/03/24 02:03:20;;;;;;;;;;;0.90;99.90;;;;;;4192033;28;20490;-47
2022/03/24 02:05:22;;;;;;;;;;;0.70;99.90;;;;;;4190833;28;19925;-48
2022/03/24 02:07:24;;;;;;;;;;;0.60;99.90;;;;;;4181398;28;19929;-47
2022/03/24 02:09:26;;;;;;;;;;;0.50;99.90;;;;;;4192328;28;19978;-46
2022/03/24 02:11:28;;;;;;;;;;;0.50;99.90;;;;;;4191980;28;20448;-49
2022/03/24 02:13:31;;;;;;;;;;;0.50;99.90;;;;;;4192077;28;19932;-48
2022/03/24 02:15:33;;;;;;;;;;;0.40;99.90;;;;;;4192587;28;19968;-47
2022/03/24 02:17:39;;;;;;;;;;;0.30;99.90;;;;;;4191667;28;19928;-46
2022/03/24 02:19:41;;;;;;;;;;;0.20;99.90;;;;;;4192151;28;19936;-46
2022/03/24 02:21:46;;;;;;;;;;;0.40;99.90;;;;;;4192037;28;19982;-46
2022/03/24 02:23:49;;;;;;;;;;;0.40;99.90;;;;;;4190539;28;19935;-48
2022/03/24 02:25:52;;;;;;;;;;;0.50;99.90;;;;;;4190808;28;19959;-47
2022/03/24 02:27:55;;;;;;;;;;;0.50;99.90;;;;;;4191976;28;19968;-46
2022/03/24 02:29:57;;;;;;;;;;;0.60;99.90;;;;;;4174216;28;19925;-49
2022/03/24 02:31:59;;;;;;;;;;;0.70;99.90;;;;;;4192080;28;19981;-47
2022/03/24 02:36:23;;;;;;;;;;;0.40;99.90;;;;;;4191995;28;20331;-49
2022/03/24 02:38:25;;;;;;;;;;;0.40;99.90;;;;;;4191860;28;19929;-47
2022/03/24 02:40:27;;;;;;;;;;;0.40;99.90;;;;;;4191947;28;20359;-49
2022/03/24 02:42:29;;;;;;;;;;;0.50;99.90;;;;;;4191765;28;20336;-46
2022/03/24 02:44:31;;;;;;;;;;;0.50;99.90;;;;;;4191801;28;19940;-46
2022/03/24 02:46:33;;;;;;;;;;;0.50;99.90;;;;;;4191985;28;19924;-47
2022/03/24 02:48:35;;;;;;;;;;;0.50;99.90;;;;;;4190154;28;19929;-47
2022/03/24 02:50:37;;;;;;;;;;;0.30;99.90;;;;;;4192053;28;19929;-46
2022/03/24 02:52:39;;;;;;;;;;;0.30;99.90;;;;;;4191576;28;19936;-48
2022/03/24 02:54:41;;;;;;;;;;;0.30;99.90;;;;;;4191812;28;19954;-50
2022/03/24 02:56:43;;;;;;;;;;;0.10;99.90;;;;;;4191724;28;19957;-48
2022/03/24 02:58:45;;;;;;;;;;;0.20;99.90;;;;;;4190524;28;19928;-46
2022/03/24 03:00:47;;;;;;;;;;;0.30;99.90;;;;;;4191509;28;19928;-48
2022/03/24 03:02:49;;;;;;;;;;;0.30;99.90;;;;;;4191795;28;19971;-45
2022/03/24 03:04:53;;;;;;;;;;;0.20;99.90;;;;;;4191682;28;19929;-49
2022/03/24 03:06:56;;;;;;;;;;;0.00;99.90;;;;;;4190401;28;19928;-47
2022/03/24 03:08:57;;;;;;;;;;;0.00;99.90;;;;;;4191891;28;19935;-47
2022/03/24 03:10:59;;;;;;;;;;;0.10;99.90;;;;;;4191616;28;19932;-47
2022/03/24 03:13:01;;;;;;;;;;;0.00;99.90;;;;;;4191416;28;19964;-49
2022/03/24 03:15:05;;;;;;;;;;;0.10;99.90;;;;;;4192057;28;20399;-48
2022/03/24 03:17:08;;;;;;;;;;;0.10;99.90;;;;;;4189707;28;19946;-49
2022/03/24 03:19:11;;;;;;;;;;;0.10;99.90;;;;;;4195480;28;19932;-50
2022/03/24 03:21:12;;;;;;;;;;;-0.10;99.90;;;;;;4193737;28;19924;-47
2022/03/24 03:23:15;;;;;;;;;;;-0.20;99.90;;;;;;4193370;28;19971;-48
2022/03/24 03:25:17;;;;;;;;;;;-0.30;99.90;;;;;;4192244;28;19990;-50
2022/03/24 03:27:19;;;;;;;;;;;-0.50;99.90;;;;;;4193169;28;19928;-48
2022/03/24 03:29:24;;;;;;;;;;;-0.60;99.90;;;;;;4193317;28;20388;-47
2022/03/24 03:31:26;;;;;;;;;;;-0.60;99.90;;;;;;4193188;28;19931;-47
2022/03/24 03:33:29;;;;;;;;;;;-0.50;99.90;;;;;;4193093;28;20442;-47
2022/03/24 03:35:31;;;;;;;;;;;-0.50;99.90;;;;;;4193892;28;19932;-47
2022/03/24 03:37:33;;;;;;;;;;;-0.50;99.90;;;;;;4194171;28;19982;-48
2022/03/24 03:39:35;;;;;;;;;;;-0.50;99.90;;;;;;4194758;28;19924;-46
2022/03/24 03:41:39;;;;;;;;;;;-0.50;99.90;;;;;;4194499;28;19928;-49
2022/03/24 03:43:44;;;;;;;;;;;-0.60;99.90;;;;;;4194143;28;20201;-48
2022/03/24 03:45:46;;;;;;;;;;;-0.60;99.90;;;;;;4193836;28;20120;-48
2022/03/24 03:47:48;;;;;;;;;;;-0.50;99.90;;;;;;4192880;28;20285;-47
2022/03/24 03:49:50;;;;;;;;;;;-0.50;99.90;;;;;;4194491;28;19935;-47
2022/03/24 03:51:59;;;;;;;;;;;-0.50;99.90;;;;;;4194419;28;19928;-46
2022/03/24 03:54:01;;;;;;;;;;;-0.60;99.90;;;;;;4193925;28;19928;-48
2022/03/24 03:56:04;;;;;;;;;;;-0.60;99.90;;;;;;4194288;28;19925;-46
2022/03/24 03:58:05;;;;;;;;;;;-0.50;99.90;;;;;;4193610;28;20394;-45
2022/03/24 04:02:28;;;;;;;;;;;-0.40;99.90;;;;;;4186262;28;19989;-48
2022/03/24 04:04:31;;;;;;;;;;;-0.40;99.90;;;;;;4194166;28;19932;-45
2022/03/24 04:06:33;;;;;;;;;;;-0.40;99.90;;;;;;4194263;28;19981;-49
2022/03/24 04:08:35;;;;;;;;;;;-0.50;99.90;;;;;;4193731;28;20343;-47
2022/03/24 04:10:40;;;;;;;;;;;-0.60;99.90;;;;;;4194268;28;19925;-46
2022/03/24 04:12:44;;;;;;;;;;;-0.60;99.90;;;;;;4199299;28;19924;-49
2022/03/24 04:14:46;;;;;;;;;;;-0.70;99.90;;;;;;4193919;28;19985;-48
2022/03/24 04:16:48;;;;;;;;;;;-0.80;99.90;;;;;;4194083;28;20282;-50
2022/03/24 04:18:50;;;;;;;;;;;-0.80;99.90;;;;;;4193269;28;19962;-46
2022/03/24 04:20:52;;;;;;;;;;;-0.80;99.90;;;;;;4194164;28;20006;-47
2022/03/24 04:22:54;;;;;;;;;;;-0.80;99.90;;;;;;4194201;28;20015;-48
2022/03/24 04:24:56;;;;;;;;;;;-0.60;99.90;;;;;;4193952;28;20031;-46
2022/03/24 04:26:58;;;;;;;;;;;-0.70;99.90;;;;;;4193504;28;19925;-47
2022/03/24 04:29:00;;;;;;;;;;;-0.80;99.90;;;;;;4193055;28;19929;-46
2022/03/24 04:31:02;;;;;;;;;;;-1.00;99.90;;;;;;4193427;28;19932;-47
2022/03/24 04:33:04;;;;;;;;;;;-1.10;99.90;;;;;;4192240;28;19932;-46
2022/03/24 04:35:07;;;;;;;;;;;-1.20;99.90;;;;;;4193690;28;19935;-47
2022/03/24 04:37:08;;;;;;;;;;;-1.30;99.90;;;;;;4192161;28;19967;-48
2022/03/24 04:39:10;;;;;;;;;;;-1.40;99.90;;;;;;4193691;28;19928;-46
2022/03/24 04:41:13;;;;;;;;;;;-1.40;99.90;;;;;;4193589;28;20363;-48
2022/03/24 04:43:15;;;;;;;;;;;-1.30;99.90;;;;;;4193164;28;19959;-49
2022/03/24 04:45:21;;;;;;;;;;;-1.10;99.90;;;;;;4191995;28;19928;-46
2022/03/24 04:47:23;;;;;;;;;;;-1.20;99.90;;;;;;4193094;28;19928;-49
2022/03/24 04:49:26;;;;;;;;;;;-1.10;99.90;;;;;;4193187;28;20006;-47
2022/03/24 04:51:28;;;;;;;;;;;-1.20;99.90;;;;;;4180498;28;19924;-46
2022/03/24 04:53:30;;;;;;;;;;;-1.20;99.90;;;;;;4193202;28;19932;-46
2022/03/24 04:55:32;;;;;;;;;;;-1.30;99.90;;;;;;4193346;28;19928;-46
2022/03/24 04:57:34;;;;;;;;;;;-1.30;99.90;;;;;;4193076;28;19975;-46
2022/03/24 04:59:36;;;;;;;;;;;-1.40;99.90;;;;;;4193056;28;19929;-49
2022/03/24 05:01:38;;;;;;;;;;;-1.50;99.90;;;;;;4193207;28;19936;-50
2022/03/24 05:03:46;;;;;;;;;;;-1.60;99.90;;;;;;4192739;28;19936;-45
2022/03/24 05:05:48;;;;;;;;;;;-1.60;99.90;;;;;;4193339;28;20636;-49
2022/03/24 05:07:50;;;;;;;;;;;-1.60;99.90;;;;;;4189774;28;19932;-48
2022/03/24 05:09:53;;;;;;;;;;;-1.60;99.90;;;;;;4193289;28;19932;-47
2022/03/24 05:11:54;;;;;;;;;;;-1.60;99.90;;;;;;4192891;28;20389;-50
2022/03/24 05:13:56;;;;;;;;;;;-1.60;99.90;;;;;;4193052;28;20656;-49
2022/03/24 05:15:58;;;;;;;;;;;-1.50;99.90;;;;;;4193046;28;20376;-47
2022/03/24 05:18:00;;;;;;;;;;;-1.50;99.90;;;;;;4190606;28;19932;-49
2022/03/24 05:20:07;;;;;;;;;;;-1.50;99.90;;;;;;4192458;28;20444;-48
2022/03/24 05:22:09;;;;;;;;;;;-1.40;99.90;;;;;;4187765;28;19959;-49
2022/03/24 05:24:12;;;;;;;;;;;-1.40;99.90;;;;;;4192233;28;19928;-48
2022/03/24 05:26:13;;;;;;;;;;;-1.40;99.90;;;;;;4192928;28;20350;-50
2022/03/24 05:28:16;;;;;;;;;;;-1.40;99.90;;;;;;4192361;28;20483;-46
2022/03/24 05:30:17;;;;;;;;;;;-1.50;99.90;;;;;;4188248;28;20296;-48
2022/03/24 05:32:19;;;;;;;;;;;-1.40;99.90;;;;;;4192598;28;19924;-47
2022/03/24 05:34:21;;;;;;;;;;;-1.30;99.90;;;;;;4192603;28;20359;-46
2022/03/24 05:36:23;;;;;;;;;;;-1.40;99.90;;;;;;4194117;28;19925;-48
2022/03/24 05:38:29;;;;;;;;;;;-1.30;99.90;;;;;;4192493;28;20076;-49
2022/03/24 05:40:32;;;;;;;;;;;-1.40;99.90;;;;;;4192135;28;20301;-48
2022/03/24 05:42:34;;;;;;;;;;;-1.40;99.90;;;;;;4192742;28;19929;-49
2022/03/24 05:44:36;;;;;;;;;;;-1.50;99.90;;;;;;4192235;28;19928;-47
2022/03/24 05:46:40;;;;;;;;;;;-1.50;99.90;;;;;;4192530;28;19971;-49
2022/03/24 05:48:42;;;;;;;;;;;-1.50;99.90;;;;;;4178856;28;20375;-49
2022/03/24 05:50:44;;;;;;;;;;;-1.60;99.90;;;;;;4191988;28;19928;-48
2022/03/24 05:52:49;;;;;;;;;;;-1.60;99.90;;;;;;4192499;28;19935;-48
2022/03/24 05:54:51;;;;;;;;;;;-1.50;99.90;;;;;;4190755;28;19962;-49
2022/03/24 05:56:53;;;;;;;;;;;-1.40;99.90;;;;;;4192292;28;19924;-49
2022/03/24 05:58:56;;;;;;;;;;;-1.20;99.90;;;;;;4192489;28;19972;-47
2022/03/24 06:00:58;;;;;;;;;;;-1.10;99.90;;;;;;4182992;28;19968;-49
2022/03/24 06:03:01;;;;;;;;;;;-1.20;99.90;;;;;;4184183;28;19928;-46
2022/03/24 06:05:05;;;;;;;;;;;-1.20;99.90;;;;;;4192439;28;20377;-48
2022/03/24 06:07:07;;;;;;;;;;;-1.10;99.90;;;;;;4190466;28;19924;-50
2022/03/24 06:09:09;;;;;;;;;;;-1.10;99.90;;;;;;4192356;28;19936;-48
2022/03/24 06:11:12;;;;;;;;;;;-1.10;99.90;;;;;;4177164;28;19928;-49
2022/03/24 06:13:14;;;;;;;;;;;-1.10;99.90;;;;;;4191728;28;19925;-47
2022/03/24 06:15:16;;;;;;;;;;;-1.00;99.90;;;;;;4192101;28;20058;-48
2022/03/24 06:17:21;;;;;;;;;;;-1.00;99.90;;;;;;4191490;28;20471;-48
2022/03/24 06:19:22;;;;;;;;;;;-0.90;99.90;;;;;;4191953;28;20464;-48
2022/03/24 06:21:24;;;;;;;;;;;-0.90;99.90;;;;;;4191549;28;20415;-50
2022/03/24 06:23:26;;;;;;;;;;;-0.80;99.90;;;;;;4191822;28;20048;-49
2022/03/24 06:25:28;;;;;;;;;;;-0.60;99.90;;;;;;4191951;28;19928;-49
2022/03/24 06:27:30;;;;;;;;;;;-0.40;99.90;;;;;;4192037;28;19966;-50
2022/03/24 06:29:32;;;;;;;;;;;-0.30;99.90;;;;;;4191590;28;20148;-49
2022/03/24 06:31:34;;;;;;;;;;;-0.20;99.90;;;;;;4191797;28;19928;-49
2022/03/24 06:33:36;;;;;;;;;;;-0.20;99.90;;;;;;4191993;28;19946;-49
2022/03/24 06:35:38;;;;;;;;;;;-0.10;99.90;;;;;;4192061;28;20374;-49
2022/03/24 06:37:40;;;;;;;;;;;-0.10;99.90;;;;;;4192036;28;19959;-51
2022/03/24 06:39:42;;;;;;;;;;;0.00;99.90;;;;;;4192019;28;20443;-49
2022/03/24 06:41:44;;;;;;;;;;;0.10;99.90;;;;;;4191637;28;19939;-49
2022/03/24 06:43:50;;;;;;;;;;;0.10;99.90;;;;;;4192079;28;19978;-49
2022/03/24 06:45:52;;;;;;;;;;;0.20;99.90;;;;;;4192093;28;19936;-49
2022/03/24 06:47:54;;;;;;;;;;;0.50;99.90;;;;;;4191521;28;20283;-47
2022/03/24 06:49:56;;;;;;;;;;;0.70;99.90;;;;;;4190801;28;19967;-50
2022/03/24 06:51:58;;;;;;;;;;;0.90;99.90;;;;;;4191755;28;20113;-49
2022/03/24 06:54:01;;;;;;;;;;;1.00;99.90;;;;;;4191565;28;19932;-48
2022/03/24 06:56:04;;;;;;;;;;;1.20;99.90;;;;;;4195096;28;19940;-47
2022/03/24 06:58:06;;;;;;;;;;;1.20;99.90;;;;;;4193459;28;19932;-47
2022/03/24 07:00:12;;;;;;;;;;;1.20;99.90;;;;;;4195056;28;19929;-48
2022/03/24 07:02:15;;;;;;;;;;;1.40;99.90;;;;;;4195301;28;19929;-51
2022/03/24 07:04:17;;;;;;;;;;;1.60;99.90;;;;;;4195022;28;20404;-50
2022/03/24 07:06:19;;;;;;;;;;;1.80;99.90;;;;;;4195067;28;19970;-49
2022/03/24 07:08:23;;;;;;;;;;;1.90;99.90;;;;;;4195223;28;20340;-51
2022/03/24 07:10:24;;;;;;;;;;;2.00;99.90;;;;;;4193683;28;19928;-51
2022/03/24 07:12:26;;;;;;;;;;;2.00;99.90;;;;;;4193398;28;19925;-50
2022/03/24 07:14:28;;;;;;;;;;;2.10;99.90;;;;;;4194815;28;19931;-49
2022/03/24 07:16:30;;;;;;;;;;;2.30;99.90;;;;;;4194704;28;20055;-49
2022/03/24 07:18:32;;;;;;;;;;;2.40;99.90;;;;;;4194162;28;20435;-47
2022/03/24 07:20:35;;;;;;;;;;;2.50;99.90;;;;;;4194907;28;19924;-49
2022/03/24 07:22:37;;;;;;;;;;;2.60;99.90;;;;;;4194636;28;20352;-50
2022/03/24 07:24:39;;;;;;;;;;;2.70;99.90;;;;;;4195026;28;20415;-50
2022/03/24 07:26:41;;;;;;;;;;;2.80;99.90;;;;;;4194698;28;19929;-48
2022/03/24 07:28:44;;;;;;;;;;;2.80;99.90;;;;;;4194391;28;20315;-50
2022/03/24 07:30:50;;;;;;;;;;;2.90;99.90;;;;;;4187367;28;19928;-49
2022/03/24 07:32:54;;;;;;;;;;;3.10;99.90;;;;;;4194800;28;20015;-50
2022/03/24 07:34:55;;;;;;;;;;;3.20;99.90;;;;;;4193648;28;20424;-50
2022/03/24 07:36:57;;;;;;;;;;;3.40;98.60;;;;;;4194349;28;19924;-48
2022/03/24 07:38:59;;;;;;;;;;;3.60;97.30;;;;;;4194816;28;19935;-51
2022/03/24 07:41:01;;;;;;;;;;;3.90;96.80;;;;;;4176753;28;20423;-50
2022/03/24 07:43:05;;;;;;;;;;;4.10;96.70;;;;;;4193497;28;19933;-50
2022/03/24 07:45:07;;;;;;;;;;;4.30;95.80;;;;;;4192999;28;20132;-51
2022/03/24 07:47:09;;;;;;;;;;;4.60;95.20;;;;;;4194093;28;19974;-48
2022/03/24 07:49:11;;;;;;;;;;;4.70;94.60;;;;;;4194374;28;19928;-48
2022/03/24 07:51:14;;;;;;;;;;;4.80;95.00;;;;;;4193850;28;19933;-47
2022/03/24 07:53:16;;;;;;;;;;;5.00;95.60;;;;;;4194526;28;20458;-46
2022/03/24 07:55:19;;;;;;;;;;;5.20;94.70;;;;;;4194164;28;19954;-47
2022/03/24 07:57:21;;;;;;;;;;;5.30;94.60;;;;;;4194405;28;20242;-50
2022/03/24 07:59:23;;;;;;;;;;;5.50;94.70;;;;;;4193295;28;19979;-47
2022/03/24 08:01:29;;;;;;;;;;;5.70;93.70;;;;;;4192025;28;20401;-48
2022/03/24 08:03:31;;;;;;;;;;;5.90;93.10;;;;;;4193508;28;19960;-51
2022/03/24 08:05:33;;;;;;;;;;;6.10;93.00;;;;;;4188313;28;19986;-47
2022/03/24 08:07:35;;;;;;;;;;;6.30;92.60;;;;;;4186571;28;19932;-48
2022/03/24 08:09:37;;;;;;;;;;;6.50;92.50;;;;;;4190305;28;19932;-50
2022/03/24 08:11:42;;;;;;;;;;;6.60;91.60;;;;;;4194240;28;20448;-51
2022/03/24 08:13:47;;;;;;;;;;;6.80;90.00;;;;;;4185904;28;20478;-49
2022/03/24 08:15:50;;;;;;;;;;;6.90;90.50;;;;;;4191197;28;19994;-50
2022/03/24 08:17:52;;;;;;;;;;;7.10;89.50;;;;;;4187995;28;19928;-50
2022/03/24 08:19:54;;;;;;;;;;;7.30;88.20;;;;;;4200813;28;19928;-51
2022/03/24 08:21:56;;;;;;;;;;;7.50;88.60;;;;;;4192131;28;19986;-47
2022/03/24 08:23:58;;;;;;;;;;;7.70;85.80;;;;;;4191795;28;19933;-48
2022/03/24 08:26:00;;;;;;;;;;;8.00;85.90;;;;;;4183679;28;19935;-50
2022/03/24 08:28:02;;;;;;;;;;;8.20;82.60;;;;;;4196268;28;20390;-49
2022/03/24 08:30:04;;;;;;;;;;;8.40;82.90;;;;;;4205415;28;20312;-50
2022/03/24 08:32:06;;;;;;;;;;;8.50;81.60;;;;;;4198024;28;19955;-51
2022/03/24 08:34:09;;;;;;;;;;;8.70;81.60;;;;;;4193349;28;21349;-49
2022/03/24 08:36:10;;;;;;;;;;;8.90;79.50;;;;;;4190425;28;19924;-47
2022/03/24 08:38:12;;;;;;;;;;;8.90;75.80;;;;;;4193634;28;19928;-50
2022/03/24 08:40:15;;;;;;;;;;;9.20;78.70;;;;;;4191015;28;19954;-48
2022/03/24 08:42:17;;;;;;;;;;;9.30;74.10;;;;;;4187086;28;20439;-50
2022/03/24 08:44:19;;;;;;;;;;;9.60;75.20;;;;;;4190149;28;19935;-47
2022/03/24 08:46:24;;;;;;;;;;;9.80;75.70;;;;;;4186205;28;19929;-49
2022/03/24 08:48:27;;;;;;;;;;;10.00;74.50;;;;;;4191199;28;20300;-50
2022/03/24 08:50:29;;;;;;;;;;;10.10;70.10;;;;;;4191925;28;19928;-47
2022/03/24 08:52:31;;;;;;;;;;;10.30;70.80;;;;;;4192015;28;20355;-48
2022/03/24 08:54:33;;;;;;;;;;;10.50;70.20;;;;;;4184881;28;19936;-47
2022/03/24 08:56:35;;;;;;;;;;;10.80;70.30;;;;;;4186109;28;19983;-47
2022/03/24 08:58:36;;;;;;;;;;;11.00;67.70;;;;;;4195589;28;20380;-51
2022/03/24 09:00:38;;;;;;;;;;;11.10;69.70;;;;;;4187624;28;19936;-47
2022/03/24 09:02:41;;;;;;;;;;;11.40;69.40;;;;;;4195710;28;19936;-50
2022/03/24 09:04:43;;;;;;;;;;;11.60;68.70;;;;;;4185902;28;20045;-48
2022/03/24 09:07:04;;;;;;;;;;;11.80;69.10;;;;;;4198712;28;20463;-49
2022/03/24 09:09:06;;;;;;;;;;;12.00;67.00;;;;;;4190919;28;19928;-50
2022/03/24 09:11:11;;;;;;;;;;;12.10;68.20;;;;;;4190043;28;19932;-50
2022/03/24 09:13:13;;;;;;;;;;;12.30;68.40;;;;;;4191295;28;20403;-48
2022/03/24 09:15:17;;;;;;;;;;;12.60;68.40;;;;;;4191804;28;19939;-48
2022/03/24 09:17:19;;;;;;;;;;;12.80;65.40;;;;;;4191399;28;20307;-50
2022/03/24 09:19:22;;;;;;;;;;;13.30;67.60;;;;;;4194224;28;19931;-49
2022/03/24 09:21:24;;;;;;;;;;;13.70;65.90;;;;;;4192638;28;19959;-50
2022/03/24 09:23:28;;;;;;;;;;;13.90;66.00;;;;;;4192773;28;19978;-50
2022/03/24 09:25:30;;;;;;;;;;;14.40;68.40;;;;;;4192928;28;19932;-48
2022/03/24 09:27:32;;;;;;;;;;;14.40;61.80;;;;;;4192746;28;20301;-50
2022/03/24 09:29:35;;;;;;;;;;;14.40;62.30;;;;;;4192734;28;19939;-48
2022/03/24 09:31:37;;;;;;;;;;;14.60;62.40;;;;;;4191225;28;20216;-50
2022/03/24 09:33:39;;;;;;;;;;;14.70;61.60;;;;;;4192607;28;19924;-51
2022/03/24 09:35:41;;;;;;;;;;;15.10;62.10;;;;;;4192518;28;19935;-50
2022/03/24 09:37:44;;;;;;;;;;;15.50;63.60;;;;;;4192297;28;20332;-49
2022/03/24 09:39:46;;;;;;;;;;;15.70;55.80;;;;;;4192664;28;19928;-48
2022/03/24 09:41:48;;;;;;;;;;;15.90;57.40;;;;;;4192589;28;20300;-51
2022/03/24 09:43:51;;;;;;;;;;;16.00;56.10;;;;;;4192625;28;19924;-51
2022/03/24 09:45:54;;;;;;;;;;;16.00;53.80;;;;;;4175085;28;20367;-48
2022/03/24 09:47:56;;;;;;;;;;;16.30;53.90;;;;;;4192333;28;20344;-51
2022/03/24 09:49:59;;;;;;;;;;;16.60;53.60;;;;;;4192292;28;19932;-51
2022/03/24 09:52:00;;;;;;;;;;;16.50;52.50;;;;;;4192180;28;19978;-50
2022/03/24 09:54:02;;;;;;;;;;;16.50;51.50;;;;;;4192218;28;19986;-48
2022/03/24 09:56:05;;;;;;;;;;;16.70;53.00;;;;;;4192543;28;19981;-50
2022/03/24 09:58:07;;;;;;;;;;;16.90;52.40;;;;;;4192726;28;19928;-50
2022/03/24 10:00:15;;;;;;;;;;;17.10;48.40;;;;;;4192157;28;20301;-51
2022/03/24 10:02:17;;;;;;;;;;;17.10;47.80;;;;;;4192401;28;19978;-50
2022/03/24 10:04:19;;;;;;;;;;;17.10;49.30;;;;;;4175691;28;19925;-50
2022/03/24 10:06:21;;;;;;;;;;;17.70;49.50;;;;;;4191891;28;19925;-48
2022/03/24 10:08:23;;;;;;;;;;;18.10;44.80;;;;;;4190737;28;19964;-49
2022/03/24 10:10:27;;;;;;;;;;;18.50;47.30;;;;;;4192282;28;20770;-51
2022/03/24 10:12:33;;;;;;;;;;;18.10;40.20;;;;;;4192336;28;19932;-48
2022/03/24 10:14:35;;;;;;;;;;;18.10;41.70;;;;;;4196361;28;19982;-51
2022/03/24 10:16:43;;;;;;;;;;;18.40;46.50;;;;;;4181327;28;19928;-48
2022/03/24 10:18:59;;;;;;;;;;;18.60;47.10;;;;;;4190222;28;19929;-48
2022/03/24 10:21:03;;;;;;;;;;;18.90;46.80;;;;;;4192297;28;20330;-51
2022/03/24 10:23:06;;;;;;;;;;;18.80;42.20;;;;;;4192432;28;19932;-51
2022/03/24 10:25:22;;;;;;;;;;;19.10;47.60;;;;;;4192190;28;19967;-51
2022/03/24 10:27:26;;;;;;;;;;;19.50;45.70;;;;;;4175111;28;20379;-51
2022/03/24 10:29:34;;;;;;;;;;;19.30;41.20;;;;;;4191761;28;19928;-51
2022/03/24 10:31:37;;;;;;;;;;;19.40;44.30;;;;;;4191689;28;20375;-50
2022/03/24 10:33:45;;;;;;;;;;;19.50;42.30;;;;;;4191850;28;19974;-52
2022/03/24 10:35:49;;;;;;;;;;;19.10;40.70;;;;;;4187977;28;20414;-52
2022/03/24 10:37:52;;;;;;;;;;;19.30;44.20;;;;;;4192105;28;19928;-51
2022/03/24 10:39:57;;;;;;;;;;;19.30;39.00;;;;;;4191831;28;19951;-51
2022/03/24 10:42:10;;;;;;;;;;;19.50;44.30;;;;;;4191986;28;20281;-51
2022/03/24 10:44:12;;;;;;;;;;;19.90;41.60;;;;;;4191703;28;20434;-51
2022/03/24 10:46:16;;;;;;;;;;;19.40;41.00;;;;;;4192390;28;19954;-50
2022/03/24 10:48:21;;;;;;;;;;;20.10;44.20;;;;;;4191543;28;19928;-51
2022/03/24 10:50:26;;;;;;;;;;;19.60;40.10;;;;;;4191781;28;20408;-51
2022/03/24 10:52:33;;;;;;;;;;;19.60;42.00;;;;;;4190837;28;20327;-52
2022/03/24 10:54:37;;;;;;;;;;;19.60;38.50;;;;;;4191682;28;20427;-51
2022/03/24 10:56:45;;;;;;;;;;;20.00;39.80;;;;;;4191831;28;19929;-51
2022/03/24 10:58:54;;;;;;;;;;;20.10;41.30;;;;;;4191683;28;19928;-50
2022/03/24 11:00:58;;;;;;;;;;;19.80;43.40;;;;;;4197396;28;20336;-51
2022/03/24 11:03:00;;;;;;;;;;;20.40;40.70;;;;;;4192029;28;19936;-52
2022/03/24 11:05:12;;;;;;;;;;;20.10;38.10;;;;;;4190178;28;19924;-51
2022/03/24 11:07:23;;;;;;;;;;;20.00;42.10;;;;;;4186443;28;20404;-50
2022/03/24 11:09:29;;;;;;;;;;;20.70;40.30;;;;;;4185794;28;19989;-49
2022/03/24 11:11:31;;;;;;;;;;;20.40;37.80;;;;;;4188429;28;19924;-52
2022/03/24 11:13:41;;;;;;;;;;;19.60;38.50;;;;;;4185899;28;20285;-50
2022/03/24 11:15:43;;;;;;;;;;;19.90;44.10;;;;;;4187712;28;19928;-51
2022/03/24 11:17:46;;;;;;;;;;;20.20;40.80;;;;;;4190461;28;19943;-50
2022/03/24 11:19:50;;;;;;;;;;;19.80;38.30;;;;;;4186205;28;20300;-51
2022/03/24 11:21:58;;;;;;;;;;;20.00;37.90;;;;;;4187714;28;20303;-51
2022/03/24 11:24:00;;;;;;;;;;;20.00;38.60;;;;;;4186852;28;19960;-50
2022/03/24 11:26:03;;;;;;;;;;;20.10;43.00;;;;;;4185325;28;19978;-51
2022/03/24 11:28:09;;;;;;;;;;;20.40;46.60;;;;;;4191590;28;19933;-51
2022/03/24 11:30:12;;;;;;;;;;;20.50;39.10;;;;;;4189708;28;19960;-52
2022/03/24 11:32:14;;;;;;;;;;;20.30;39.50;;;;;;4192242;28;20018;-51
2022/03/24 11:34:18;;;;;;;;;;;20.30;42.30;;;;;;4183095;28;19929;-50
2022/03/24 11:36:21;;;;;;;;;;;20.70;44.80;;;;;;4187950;28;19936;-50
2022/03/24 11:38:23;;;;;;;;;;;20.60;39.20;;;;;;4189164;28;20470;-51
2022/03/24 11:40:26;;;;;;;;;;;20.20;39.40;;;;;;4192978;28;19939;-51
2022/03/24 11:42:28;;;;;;;;;;;20.30;44.20;;;;;;4187695;28;19928;-49
2022/03/24 11:44:30;;;;;;;;;;;20.50;40.10;;;;;;4190470;28;20014;-51
2022/03/24 11:46:31;;;;;;;;;;;20.10;39.20;;;;;;4183171;28;20667;-49
2022/03/24 11:48:41;;;;;;;;;;;20.30;43.40;;;;;;4192235;28;19925;-49
2022/03/24 11:50:50;;;;;;;;;;;20.20;40.20;;;;;;4193533;28;19928;-52
2022/03/24 11:53:07;;;;;;;;;;;20.10;39.90;;;;;;4192373;28;19959;-50
2022/03/24 11:55:13;;;;;;;;;;;19.90;39.30;;;;;;4193265;28;19982;-50
2022/03/24 11:57:21;;;;;;;;;;;20.00;39.80;;;;;;4191808;28;20171;-51
2022/03/24 11:59:24;;;;;;;;;;;20.00;40.50;;;;;;4193488;28;20458;-50
2022/03/24 12:01:32;;;;;;;;;;;20.30;40.50;;;;;;4192443;28;19932;-49
2022/03/24 12:03:39;;;;;;;;;;;20.20;39.80;;;;;;4194166;28;19932;-51
2022/03/24 12:05:51;;;;;;;;;;;20.00;38.40;;;;;;4199916;28;20339;-51